createdAt,value
2019-06-07T00:00:47.584Z,63.95
2019-06-07T00:03:28.937Z,64.14
2019-06-07T00:05:47.689Z,64.15
2019-06-07T00:08:24.747Z,64.31
2019-06-07T00:10:47.577Z,64.23
2019-06-07T00:13:20.175Z,64.11
2019-06-07T00:15:47.653Z,64.15
2019-06-07T00:18:23.568Z,64.17
2019-06-07T00:20:47.464Z,64.07
2019-06-07T00:23:20.740Z,64.05
2019-06-07T00:25:47.346Z,64.08
2019-06-07T00:28:17.287Z,64.08
2019-06-07T00:30:51.973Z,64.12
2019-06-07T00:33:23.363Z,64.26
2019-06-07T00:35:48.874Z,64.23
2019-06-07T00:38:20.464Z,64.31
2019-06-07T00:40:49.473Z,64.53
2019-06-07T00:43:24.810Z,64.50
2019-06-07T00:45:49.364Z,64.71
2019-06-07T00:48:27.454Z,64.75
2019-06-07T00:50:49.254Z,64.84
2019-06-07T00:53:28.821Z,64.93
2019-06-07T00:55:49.139Z,65.13
2019-06-07T00:58:21.849Z,65.21
2019-06-07T01:00:49.037Z,65.30
2019-06-07T01:03:20.485Z,65.41
2019-06-07T01:05:48.934Z,65.48
2019-06-07T01:08:19.990Z,65.41
2019-06-07T01:10:53.787Z,65.45
2019-06-07T01:13:22.754Z,65.52
2019-06-07T01:15:50.470Z,65.82
2019-06-07T01:18:37.848Z,65.96
2019-06-07T01:20:50.298Z,66.01
2019-06-07T01:24:05.355Z,66.00
2019-06-07T01:25:50.168Z,66.07
2019-06-07T01:28:21.419Z,66.13
2019-06-07T01:30:50.100Z,66.28
2019-06-07T01:33:20.860Z,66.46
2019-06-07T01:35:50.007Z,66.57
2019-06-07T01:38:22.878Z,66.65
2019-06-07T01:40:49.864Z,66.74
2019-06-07T01:43:19.524Z,66.90
2019-06-07T01:45:49.672Z,66.96
2019-06-07T01:48:22.809Z,67.01
2019-06-07T01:50:49.543Z,67.11
2019-06-07T01:53:21.718Z,67.09
2019-06-07T01:55:49.524Z,67.20
2019-06-07T01:58:19.846Z,67.16
2019-06-07T02:00:49.593Z,67.35
2019-06-07T02:03:21.393Z,67.45
2019-06-07T02:05:49.491Z,67.54
2019-06-07T02:08:20.036Z,67.64
2019-06-07T02:10:49.375Z,67.59
2019-06-07T02:13:18.790Z,67.73
2019-06-07T02:15:47.941Z,67.91
2019-06-07T02:18:17.044Z,67.97
2019-06-07T02:20:46.117Z,68.01
2019-06-07T02:23:15.209Z,68.03
2019-06-07T02:25:50.182Z,68.17
2019-06-07T02:28:30.021Z,68.23
2019-06-07T02:30:58.954Z,68.37
2019-06-07T02:33:16.761Z,68.53
2019-06-07T02:35:45.804Z,68.67
2019-06-07T02:38:14.897Z,68.88
2019-06-07T02:40:43.988Z,69.09
2019-06-07T02:43:13.064Z,69.20
2019-06-07T02:45:43.443Z,69.29
2019-06-07T02:48:13.015Z,69.31
2019-06-07T02:50:42.310Z,69.24
2019-06-07T02:53:11.469Z,69.31
2019-06-07T02:56:33.265Z,69.50
2019-06-07T02:58:11.378Z,69.80
2019-06-07T03:01:06.736Z,70.00
2019-06-07T03:03:24.624Z,70.16
2019-06-07T03:05:54.283Z,70.31
2019-06-07T03:08:23.376Z,70.42
2019-06-07T03:10:53.145Z,70.42
2019-06-07T03:13:22.662Z,70.37
2019-06-07T03:15:53.846Z,70.59
2019-06-07T03:18:41.757Z,70.59
2019-06-07T03:21:17.902Z,70.59
2019-06-07T03:23:48.032Z,70.67
2019-06-07T03:26:18.626Z,70.85
2019-06-07T03:28:48.216Z,70.90
2019-06-07T03:31:17.292Z,71.00
2019-06-07T03:33:46.419Z,70.86
2019-06-07T03:36:23.691Z,70.76
2019-06-07T03:38:46.289Z,70.82
2019-06-07T03:41:15.383Z,70.76
2019-06-07T03:43:44.493Z,70.80
2019-06-07T03:46:13.662Z,70.85
2019-06-07T03:48:42.752Z,71.04
2019-06-07T03:51:23.979Z,71.13
2019-06-07T03:53:42.555Z,71.14
2019-06-07T03:56:12.745Z,71.11
2019-06-07T03:58:49.744Z,71.07
2019-06-07T04:01:13.164Z,70.96
2019-06-07T04:03:50.965Z,70.90
2019-06-07T04:06:13.078Z,70.74
2019-06-07T04:08:42.435Z,70.72
2019-06-07T04:11:11.523Z,70.69
2019-06-07T04:13:42.975Z,70.54
2019-06-07T04:16:11.643Z,70.25
2019-06-07T04:18:42.386Z,69.88
2019-06-07T04:21:11.579Z,69.83
2019-06-07T04:23:45.547Z,69.83
2019-06-07T04:26:11.470Z,69.79
2019-06-07T04:29:31.125Z,69.59
2019-06-07T04:31:13.513Z,69.51
2019-06-07T04:33:43.660Z,69.41
2019-06-07T04:36:13.779Z,69.36
2019-06-07T04:38:43.742Z,69.22
2019-06-07T04:41:13.872Z,69.16
2019-06-07T04:43:43.872Z,69.03
2019-06-07T04:46:13.665Z,68.94
2019-06-07T04:48:45.392Z,68.89
2019-06-07T04:51:15.590Z,68.86
2019-06-07T04:53:44.665Z,68.37
2019-06-07T04:56:13.761Z,68.21
2019-06-07T04:58:43.145Z,68.49
2019-06-07T05:01:26.889Z,68.83
2019-06-07T05:03:44.366Z,68.94
2019-06-07T05:06:14.807Z,69.10
2019-06-07T05:08:44.058Z,69.18
2019-06-07T05:11:13.194Z,69.28
2019-06-07T05:13:43.839Z,69.03
2019-06-07T05:16:13.303Z,68.57
2019-06-07T05:18:43.225Z,68.31
2019-06-07T05:21:12.541Z,67.87
2019-06-07T05:24:05.278Z,66.97
2019-06-07T05:26:12.404Z,65.73
2019-06-07T05:28:43.058Z,64.86
2019-06-07T05:31:12.591Z,64.06
2019-06-07T05:33:43.576Z,63.33
2019-06-07T05:36:12.454Z,63.00
2019-06-07T05:38:44.804Z,62.30
2019-06-07T05:41:12.340Z,61.50
2019-06-07T05:43:49.503Z,60.96
2019-06-07T05:46:12.224Z,60.54
2019-06-07T05:48:42.480Z,60.21
2019-06-07T05:51:12.038Z,59.60
2019-06-07T05:53:44.702Z,58.99
2019-06-07T05:56:12.828Z,58.68
2019-06-07T05:58:44.575Z,58.28
2019-06-07T06:01:42.261Z,57.88
2019-06-07T06:03:46.609Z,57.36
2019-06-07T06:06:14.738Z,57.11
2019-06-07T06:08:45.249Z,56.48
2019-06-07T06:11:14.488Z,56.20
2019-06-07T06:14:05.968Z,55.42
2019-06-07T06:16:14.394Z,54.95
2019-06-07T06:18:47.065Z,54.91
2019-06-07T06:21:19.346Z,54.28
2019-06-07T06:23:47.987Z,54.08
2019-06-07T06:26:15.934Z,54.42
2019-06-07T06:28:45.448Z,54.33
2019-06-07T06:31:14.581Z,54.22
2019-06-07T06:33:45.249Z,54.07
2019-06-07T06:36:14.471Z,53.31
2019-06-07T06:38:43.920Z,52.91
2019-06-07T06:41:16.332Z,52.56
2019-06-07T06:43:46.752Z,52.37
2019-06-07T06:46:31.800Z,52.39
2019-06-07T06:48:51.718Z,52.26
2019-06-07T06:51:16.805Z,52.01
2019-06-07T06:53:46.870Z,51.76
2019-06-07T06:56:16.841Z,51.37
2019-06-07T06:59:27.306Z,51.17
2019-06-07T07:01:16.866Z,50.70
2019-06-07T07:04:06.834Z,50.18
2019-06-07T07:06:25.905Z,49.43
2019-06-07T07:08:53.300Z,48.30
2019-06-07T07:11:23.157Z,48.21
2019-06-07T07:13:56.198Z,47.95
2019-06-07T07:16:23.660Z,47.89
2019-06-07T07:18:54.608Z,47.56
2019-06-07T07:21:23.559Z,47.19
2019-06-07T07:24:19.748Z,47.16
2019-06-07T07:26:23.441Z,46.50
2019-06-07T07:28:57.249Z,46.06
2019-06-07T07:31:23.295Z,45.84
2019-06-07T07:34:29.059Z,45.92
2019-06-07T07:36:38.899Z,45.79
2019-06-07T07:39:00.447Z,45.20
2019-06-07T07:41:25.009Z,44.79
2019-06-07T07:44:05.488Z,44.54
2019-06-07T07:46:29.536Z,44.77
2019-06-07T07:48:56.256Z,44.77
2019-06-07T07:51:25.389Z,44.62
2019-06-07T07:54:08.674Z,45.40
2019-06-07T07:56:25.269Z,46.46
2019-06-07T07:59:00.214Z,45.28
2019-06-07T08:01:25.171Z,44.70
2019-06-07T08:03:56.125Z,44.23
2019-06-07T08:06:25.153Z,43.00
2019-06-07T08:08:56.962Z,43.33
2019-06-07T08:11:25.027Z,42.83
2019-06-07T08:13:57.238Z,42.71
2019-06-07T08:16:24.907Z,43.15
2019-06-07T08:18:58.612Z,42.82
2019-06-07T08:21:27.353Z,42.55
2019-06-07T08:24:00.749Z,41.29
2019-06-07T08:26:27.556Z,41.05
2019-06-07T08:28:59.736Z,41.92
2019-06-07T08:31:27.505Z,42.21
2019-06-07T08:33:58.442Z,42.10
2019-06-07T08:36:41.283Z,42.43
2019-06-07T08:39:06.742Z,43.21
2019-06-07T08:41:29.107Z,44.31
2019-06-07T08:44:00.585Z,44.54
2019-06-07T08:46:29.018Z,44.77
2019-06-07T08:49:02.632Z,44.50
2019-06-07T08:51:28.851Z,44.73
2019-06-07T08:54:20.629Z,44.33
2019-06-07T08:56:28.806Z,44.47
2019-06-07T08:59:05.533Z,44.69
2019-06-07T09:01:29.334Z,44.96
2019-06-07T09:04:02.814Z,44.40
2019-06-07T09:09:01.998Z,44.05
2019-06-07T09:11:30.844Z,43.77
2019-06-07T09:14:02.911Z,43.78
2019-06-07T09:16:30.755Z,44.60
2019-06-07T09:19:03.867Z,44.67
2019-06-07T09:21:30.651Z,44.55
2019-06-07T09:24:05.486Z,44.34
2019-06-07T09:26:30.662Z,44.13
2019-06-07T09:29:01.368Z,44.10
2019-06-07T09:31:51.360Z,43.71
2019-06-07T09:34:10.297Z,44.03
2019-06-07T09:36:32.175Z,43.95
2019-06-07T09:39:07.411Z,44.66
2019-06-07T09:41:46.998Z,44.05
2019-06-07T09:44:19.113Z,43.77
2019-06-07T09:46:34.535Z,44.15
2019-06-07T09:49:22.982Z,43.77
2019-06-07T09:51:34.423Z,44.93
2019-06-07T09:54:06.881Z,45.25
2019-06-07T09:56:34.315Z,42.47
2019-06-07T09:59:06.854Z,41.18
2019-06-07T10:01:34.227Z,42.27
2019-06-07T10:04:08.264Z,42.70
2019-06-07T10:06:34.135Z,43.05
2019-06-07T10:11:34.102Z,42.75
2019-06-07T10:14:04.475Z,42.93
2019-06-07T10:16:46.152Z,42.66
2019-06-07T10:19:05.613Z,42.47
2019-06-07T10:21:34.812Z,41.60
2019-06-07T10:24:03.920Z,41.70
2019-06-07T10:26:32.996Z,41.33
2019-06-07T10:29:02.101Z,40.79
2019-06-07T10:31:31.166Z,41.07
2019-06-07T10:34:00.562Z,41.35
2019-06-07T10:36:29.740Z,41.64
2019-06-07T10:38:58.843Z,39.62
2019-06-07T10:41:27.927Z,40.19
2019-06-07T10:43:57.002Z,41.13
2019-06-07T10:46:26.103Z,40.46
2019-06-07T10:48:55.211Z,40.67
2019-06-07T10:51:24.318Z,40.63
2019-06-07T10:53:53.434Z,39.59
2019-06-07T10:56:22.549Z,40.38
2019-06-07T10:58:51.631Z,40.53
2019-06-07T11:01:20.753Z,40.38
2019-06-07T11:03:49.830Z,40.35
2019-06-07T11:06:18.911Z,40.13
2019-06-07T11:08:47.995Z,40.04
2019-06-07T11:11:17.111Z,41.30
2019-06-07T11:13:46.114Z,41.47
2019-06-07T11:16:15.823Z,41.03
2019-06-07T11:18:44.900Z,40.89
2019-06-07T11:21:14.395Z,40.44
2019-06-07T11:23:43.505Z,39.80
2019-06-07T11:26:12.618Z,39.88
2019-06-07T11:28:41.698Z,39.62
2019-06-07T11:31:11.336Z,39.58
2019-06-07T11:33:41.065Z,39.95
2019-06-07T11:36:10.644Z,38.64
2019-06-07T11:38:39.830Z,39.29
2019-06-07T11:41:09.384Z,39.35
2019-06-07T11:43:38.482Z,38.20
2019-06-07T11:46:08.777Z,38.55
2019-06-07T11:48:38.049Z,38.87
2019-06-07T11:51:08.474Z,37.82
2019-06-07T11:53:37.675Z,37.46
2019-06-07T11:56:07.869Z,36.88
2019-06-07T11:58:37.049Z,36.42
2019-06-07T12:01:07.565Z,36.84
2019-06-07T12:03:36.811Z,36.84
2019-06-07T12:06:05.983Z,35.83
2019-06-07T12:08:35.058Z,35.40
2019-06-07T12:11:04.184Z,35.09
2019-06-07T12:13:33.289Z,34.84
2019-06-07T12:16:02.371Z,35.69
2019-06-07T12:18:31.449Z,35.38
2019-06-07T12:21:00.533Z,34.79
2019-06-07T12:23:29.614Z,34.95
2019-06-07T12:25:58.714Z,33.80
2019-06-07T12:28:27.783Z,33.70
2019-06-07T12:30:56.885Z,33.80
2019-06-07T12:33:25.974Z,34.22
2019-06-07T12:35:55.088Z,34.09
2019-06-07T12:38:24.159Z,33.68
2019-06-07T12:40:57.433Z,32.80
2019-06-07T12:43:24.047Z,32.63
2019-06-07T12:45:53.122Z,32.82
2019-06-07T12:48:25.545Z,33.26
2019-06-07T12:50:53.138Z,32.65
2019-06-07T12:53:26.661Z,33.78
2019-06-07T12:55:53.016Z,33.34
2019-06-07T12:58:30.548Z,34.01
2019-06-07T13:00:53.030Z,33.78
2019-06-07T13:03:22.566Z,33.08
2019-06-07T13:05:51.754Z,32.77
2019-06-07T13:08:22.032Z,32.08
2019-06-07T13:10:51.402Z,31.72
2019-06-07T13:13:21.376Z,31.99
2019-06-07T13:15:51.294Z,32.25
2019-06-07T13:18:21.755Z,31.80
2019-06-07T13:20:55.149Z,32.02
2019-06-07T13:23:22.657Z,32.12
2019-06-07T13:25:51.768Z,31.83
2019-06-07T13:28:20.975Z,31.90
2019-06-07T13:30:50.044Z,31.77
2019-06-07T13:33:19.136Z,32.20
2019-06-07T13:35:48.196Z,31.55
2019-06-07T13:38:26.816Z,31.77
2019-06-07T13:40:57.056Z,31.61
2019-06-07T13:43:28.001Z,31.91
2019-06-07T13:45:57.354Z,31.11
2019-06-07T13:48:27.759Z,31.30
2019-06-07T13:50:57.112Z,31.03
2019-06-07T13:53:26.226Z,30.84
2019-06-07T13:55:55.280Z,31.09
2019-06-07T13:58:24.374Z,30.37
2019-06-07T14:00:53.481Z,30.85
2019-06-07T14:03:27.862Z,30.78
2019-06-07T14:05:53.384Z,30.62
2019-06-07T14:08:23.247Z,30.69
2019-06-07T14:10:52.391Z,30.61
2019-06-07T14:13:21.638Z,31.41
2019-06-07T14:15:50.725Z,31.68
2019-06-07T14:18:20.390Z,31.14
2019-06-07T14:20:49.413Z,31.21
2019-06-07T14:23:18.586Z,31.06
2019-06-07T14:25:47.696Z,30.77
2019-06-07T14:28:16.642Z,30.99
2019-06-07T14:30:45.714Z,31.02
2019-06-07T14:33:14.838Z,31.33
2019-06-07T14:35:43.905Z,31.56
2019-06-07T14:38:13.297Z,31.55
2019-06-07T14:40:42.401Z,31.31
2019-06-07T14:43:11.487Z,31.01
2019-06-07T14:45:40.563Z,31.22
2019-06-07T14:48:09.663Z,31.49
2019-06-07T14:50:38.772Z,31.64
2019-06-07T14:53:07.827Z,31.59
2019-06-07T14:55:36.898Z,31.54
2019-06-07T14:58:06.007Z,30.93
2019-06-07T15:00:44.915Z,31.17
2019-06-07T15:03:13.926Z,31.16
2019-06-07T15:05:42.922Z,31.12
2019-06-07T15:08:12.005Z,30.92
2019-06-07T15:10:41.074Z,30.97
2019-06-07T15:13:10.544Z,31.06
2019-06-07T15:15:39.585Z,31.11
2019-06-07T15:18:08.686Z,31.22
2019-06-07T15:20:38.345Z,31.66
2019-06-07T15:23:08.013Z,31.96
2019-06-07T15:25:37.173Z,31.76
2019-06-07T15:28:06.262Z,31.89
2019-06-07T15:30:35.722Z,31.70
2019-06-07T15:33:05.014Z,31.78
2019-06-07T15:35:35.977Z,31.75
2019-06-07T15:38:05.031Z,31.46
2019-06-07T15:40:35.220Z,31.96
2019-06-07T15:43:04.395Z,32.27
2019-06-07T15:45:33.712Z,33.10
2019-06-07T15:48:02.967Z,33.41
2019-06-07T15:50:32.249Z,33.34
2019-06-07T15:53:01.402Z,33.38
2019-06-07T15:55:31.982Z,33.28
2019-06-07T15:58:01.295Z,33.18
2019-06-07T16:00:31.355Z,33.31
2019-06-07T16:03:00.533Z,33.57
2019-06-07T16:05:29.635Z,33.86
2019-06-07T16:07:58.715Z,33.97
2019-06-07T16:10:27.796Z,34.38
2019-06-07T16:13:00.523Z,34.61
2019-06-07T16:15:27.671Z,35.00
2019-06-07T16:17:56.769Z,35.54
2019-06-07T16:20:25.863Z,35.73
2019-06-07T16:22:54.923Z,35.98
2019-06-07T16:25:24.009Z,36.45
2019-06-07T16:27:53.087Z,36.31
2019-06-07T16:30:22.190Z,36.72
2019-06-07T16:32:51.278Z,36.88
2019-06-07T16:35:20.401Z,36.93
2019-06-07T16:37:52.073Z,37.02
2019-06-07T16:40:20.274Z,36.80
2019-06-07T16:42:49.370Z,37.01
2019-06-07T16:45:18.972Z,37.13
2019-06-07T16:47:49.733Z,37.50
2019-06-07T16:50:19.576Z,37.71
2019-06-07T16:52:48.851Z,38.18
2019-06-07T16:55:18.528Z,38.18
2019-06-07T16:57:49.084Z,38.19
2019-06-07T17:00:19.189Z,38.34
2019-06-07T17:02:49.110Z,38.15
2019-06-07T17:05:18.605Z,38.24
2019-06-07T17:07:48.950Z,38.19
2019-06-07T17:10:18.601Z,38.47
2019-06-07T17:12:48.957Z,38.66
2019-06-07T17:15:19.935Z,38.72
2019-06-07T17:17:49.367Z,38.88
2019-06-07T17:20:19.926Z,39.20
2019-06-07T17:22:49.782Z,39.32
2019-06-07T17:25:19.798Z,39.49
2019-06-07T17:27:50.178Z,39.67
2019-06-07T17:30:19.494Z,39.72
2019-06-07T17:32:57.627Z,39.73
2019-06-07T17:35:19.911Z,39.86
2019-06-07T17:37:49.690Z,40.15
2019-06-07T17:40:19.913Z,40.30
2019-06-07T17:42:49.115Z,40.44
2019-06-07T17:45:18.767Z,40.71
2019-06-07T17:47:47.874Z,40.89
2019-06-07T17:50:17.148Z,40.99
2019-06-07T17:52:46.305Z,41.21
2019-06-07T17:55:15.796Z,41.29
2019-06-07T17:57:46.525Z,41.50
2019-06-07T18:00:33.480Z,41.70
2019-06-07T18:02:47.130Z,41.71
2019-06-07T18:05:16.560Z,41.87
2019-06-07T18:07:47.754Z,42.06
2019-06-07T18:10:26.583Z,42.36
2019-06-07T18:12:55.662Z,42.54
2019-06-07T18:15:36.412Z,42.69
2019-06-07T18:18:05.595Z,42.93
2019-06-07T18:20:34.751Z,43.21
2019-06-07T18:23:03.841Z,43.28
2019-06-07T18:25:32.912Z,43.52
2019-06-07T18:28:02.010Z,43.59
2019-06-07T18:30:31.080Z,43.81
2019-06-07T18:33:00.179Z,44.01
2019-06-07T18:35:29.245Z,44.11
2019-06-07T18:37:59.307Z,44.34
2019-06-07T18:40:28.408Z,44.52
2019-06-07T18:42:57.512Z,44.61
2019-06-07T18:45:26.573Z,44.70
2019-06-07T18:47:55.791Z,44.74
2019-06-07T18:50:24.825Z,44.89
2019-06-07T18:52:54.923Z,45.23
2019-06-07T18:55:24.070Z,45.50
2019-06-07T18:57:54.427Z,45.68
2019-06-07T19:00:25.679Z,45.85
2019-06-07T19:02:56.128Z,46.25
2019-06-07T19:05:25.250Z,46.56
2019-06-07T19:07:54.763Z,46.81
2019-06-07T19:10:24.427Z,46.95
2019-06-07T19:12:53.586Z,47.21
2019-06-07T19:15:23.380Z,47.40
2019-06-07T19:17:53.897Z,47.57
2019-06-07T19:20:23.364Z,47.68
2019-06-07T19:22:52.450Z,47.79
2019-06-07T19:25:21.634Z,47.98
2019-06-07T19:27:50.797Z,48.17
2019-06-07T19:30:22.174Z,48.44
2019-06-07T19:32:51.510Z,48.63
2019-06-07T19:35:21.218Z,48.76
2019-06-07T19:37:51.590Z,48.99
2019-06-07T19:40:21.069Z,49.14
2019-06-07T19:42:50.249Z,49.38
2019-06-07T19:45:34.990Z,49.62
2019-06-07T19:47:50.584Z,49.85
2019-06-07T19:50:19.760Z,50.01
2019-06-07T19:52:48.849Z,50.14
2019-06-07T19:55:18.037Z,50.32
2019-06-07T19:57:50.110Z,50.51
2019-06-07T20:00:18.147Z,50.74
2019-06-07T20:02:47.266Z,50.92
2019-06-07T20:05:17.638Z,51.09
2019-06-07T20:07:46.649Z,51.24
2019-06-07T20:10:16.184Z,51.36
2019-06-07T20:12:45.267Z,51.38
2019-06-07T20:15:27.899Z,51.53
2019-06-07T20:17:45.558Z,51.70
2019-06-07T20:20:14.633Z,51.78
2019-06-07T20:22:43.749Z,51.81
2019-06-07T20:25:13.242Z,51.95
2019-06-07T20:27:42.329Z,52.04
2019-06-07T20:30:12.219Z,52.25
2019-06-07T20:32:41.325Z,52.33
2019-06-07T20:35:10.604Z,52.38
2019-06-07T20:37:39.778Z,52.40
2019-06-07T20:40:23.398Z,52.37
2019-06-07T20:42:41.103Z,52.41
2019-06-07T20:45:10.478Z,52.50
2019-06-07T20:47:39.540Z,52.55
2019-06-07T20:50:09.240Z,52.72
2019-06-07T20:52:38.956Z,52.89
2019-06-07T20:55:09.913Z,53.07
2019-06-07T20:57:39.052Z,53.19
2019-06-07T21:00:20.409Z,53.43
2019-06-07T21:02:40.386Z,53.50
2019-06-07T21:05:10.204Z,53.71
2019-06-07T21:07:39.226Z,53.93
2019-06-07T21:10:10.446Z,54.13
2019-06-07T21:12:39.416Z,54.32
2019-06-07T21:15:14.141Z,54.44
2019-06-07T21:17:41.330Z,54.61
2019-06-07T21:20:14.179Z,54.78
2019-06-07T21:22:41.766Z,54.99
2019-06-07T21:25:11.849Z,55.08
2019-06-07T21:27:41.014Z,55.21
2019-06-07T21:30:11.614Z,55.33
2019-06-07T21:32:40.869Z,55.35
2019-06-07T21:35:12.200Z,55.38
2019-06-07T21:37:41.630Z,55.46
2019-06-07T21:40:12.092Z,55.54
2019-06-07T21:42:41.284Z,55.57
2019-06-07T21:45:11.844Z,55.58
2019-06-07T21:47:41.138Z,55.69
2019-06-07T21:50:10.905Z,55.75
2019-06-07T21:52:40.100Z,55.72
2019-06-07T21:55:09.437Z,55.74
2019-06-07T21:57:38.466Z,55.82
2019-06-07T22:00:11.709Z,55.88
2019-06-07T22:02:41.322Z,55.99
2019-06-07T22:05:11.728Z,56.04
2019-06-07T22:07:40.976Z,56.05
2019-06-07T22:10:10.196Z,56.05
2019-06-07T22:12:39.208Z,56.10
2019-06-07T22:15:28.453Z,56.25
2019-06-07T22:17:39.236Z,56.29
2019-06-07T22:20:08.764Z,56.22
2019-06-07T22:22:37.866Z,56.31
2019-06-07T22:25:07.518Z,56.44
2019-06-07T22:27:36.582Z,56.52
2019-06-07T22:30:06.640Z,56.66
2019-06-07T22:32:35.744Z,56.76
2019-06-07T22:35:05.146Z,57.18
2019-06-07T22:37:34.199Z,56.91
2019-06-07T22:40:03.407Z,57.26
2019-06-07T22:42:32.480Z,57.98
2019-06-07T22:45:01.597Z,59.54
2019-06-07T22:47:30.672Z,61.16
2019-06-07T22:49:59.712Z,62.42
2019-06-07T22:52:28.799Z,63.30
2019-06-07T22:54:57.892Z,63.87
2019-06-07T22:57:28.642Z,64.30
2019-06-07T22:59:57.745Z,64.75
2019-06-07T23:02:26.855Z,65.09
2019-06-07T23:04:55.957Z,65.83
2019-06-07T23:07:24.952Z,66.35
2019-06-07T23:09:54.043Z,66.77
2019-06-07T23:12:23.122Z,67.34
2019-06-07T23:14:52.296Z,67.55
2019-06-07T23:17:21.373Z,67.50
2019-06-07T23:19:50.476Z,67.82
2019-06-07T23:22:20.143Z,68.27
2019-06-07T23:24:49.242Z,68.26
2019-06-07T23:27:18.479Z,68.66
2019-06-07T23:29:47.484Z,68.72
2019-06-07T23:32:16.762Z,68.91
2019-06-07T23:34:45.812Z,68.96
2019-06-07T23:37:15.040Z,68.86
2019-06-07T23:39:44.055Z,68.71
2019-06-07T23:42:13.363Z,68.60
2019-06-07T23:44:42.502Z,68.55
2019-06-07T23:47:15.165Z,68.54
2019-06-07T23:49:42.416Z,68.34
2019-06-07T23:52:11.954Z,68.34
2019-06-07T23:54:40.988Z,68.26
2019-06-07T23:57:10.080Z,68.36
2019-06-07T23:59:39.191Z,68.41
